Time;durP1;ratioP1;P1;durP2;ratioP2;P2;SDS_P1;SDS_P2;PMS_P1;PMS_P2;Temp;Humidity;BMP_temperature;BMP_pressure;BME280_temperature;BME280_humidity;BME280_pressure;Samples;Min_cycle;Max_cycle;Signal;HPM_P1;HPM_P2
2023/06/28 00:00:18;;;;;;;5.10;2.00;;;;;;;18.48;64.67;101651.41;3574191;40;20438;-72
2023/06/28 00:02:45;;;;;;;8.68;2.67;;;;;;;18.45;64.07;101638.03;3575982;40;20160;-72
2023/06/28 00:05:12;;;;;;;6.45;2.38;;;;;;;18.47;66.02;101634.22;3574099;40;21236;-72
2023/06/28 00:07:39;;;;;;;6.68;2.53;;;;;;;18.51;65.90;101645.69;3575993;40;20048;-72
2023/06/28 00:10:06;;;;;;;7.55;2.58;;;;;;;18.50;67.56;101641.25;3573667;40;20854;-72
2023/06/28 00:12:32;;;;;;;7.30;2.40;;;;;;;18.48;68.07;101646.81;3574236;40;20350;-71
2023/06/28 00:14:59;;;;;;;4.05;2.30;;;;;;;18.47;67.87;101650.53;3578221;40;20099;-71
2023/06/28 00:17:29;;;;;;;4.15;2.40;;;;;;;18.45;68.66;101651.66;3576816;40;20057;-72
2023/06/28 00:20:06;;;;;;;7.55;2.92;;;;;;;18.10;69.12;101596.38;3576945;40;20124;-72
2023/06/28 00:22:32;;;;;;;9.85;2.55;;;;;;;18.40;69.64;101664.78;3576613;40;20052;-72
2023/06/28 00:25:01;;;;;;;5.57;2.50;;;;;;;18.38;69.57;101642.25;3576223;40;20141;-72
2023/06/28 00:27:27;;;;;;;6.03;2.60;;;;;;;18.36;67.66;101650.53;3574955;40;20058;-72
2023/06/28 00:29:54;;;;;;;3.85;2.15;;;;;;;18.11;68.85;101624.47;3576548;40;20058;-72
2023/06/28 00:32:20;;;;;;;5.30;2.10;;;;;;;18.28;68.88;101644.88;3579817;40;20481;-72
2023/06/28 00:34:46;;;;;;;4.88;2.05;;;;;;;18.20;66.77;101637.31;3580625;40;20055;-72
2023/06/28 00:37:12;;;;;;;7.15;2.08;;;;;;;18.26;66.25;101652.28;3574856;40;21448;-72
2023/06/28 00:39:37;;;;;;;6.63;2.15;;;;;;;18.26;66.38;101655.88;3578103;40;20328;-72
2023/06/28 00:42:03;;;;;;;7.10;2.53;;;;;;;18.25;68.17;101658.72;3575488;40;20080;-72
2023/06/28 00:44:29;;;;;;;5.57;2.30;;;;;;;18.22;66.88;101662.56;3578436;40;20064;-71
2023/06/28 00:46:56;;;;;;;5.30;2.10;;;;;;;18.01;67.67;101621.59;3580994;40;20052;-72
2023/06/28 00:49:28;;;;;;;5.15;2.20;;;;;;;18.23;68.64;101653.41;3579598;40;20436;-71
2023/06/28 00:51:55;;;;;;;6.10;2.25;;;;;;;18.21;69.10;101649.94;3576625;40;20064;-71
2023/06/28 00:54:22;;;;;;;4.78;2.55;;;;;;;18.20;68.51;101652.78;3576517;40;20080;-72
2023/06/28 00:56:48;;;;;;;4.93;2.50;;;;;;;17.97;68.08;101619.28;3580513;40;20056;-71
2023/06/28 00:59:18;;;;;;;6.40;2.70;;;;;;;18.16;68.61;101645.88;3575779;40;20067;-71
2023/06/28 01:01:44;;;;;;;4.22;2.42;;;;;;;18.15;69.14;101650.44;3577087;40;20390;-72
2023/06/28 01:04:13;;;;;;;4.63;2.30;;;;;;;18.14;69.47;101647.84;3575184;40;20092;-72
2023/06/28 01:06:51;;;;;;;4.32;2.00;;;;;;;18.18;69.47;101649.34;3572666;40;20125;-71
2023/06/28 01:09:20;;;;;;;11.90;2.40;;;;;;;18.18;68.04;101652.91;3574563;40;20058;-71
2023/06/28 01:11:50;;;;;;;3.45;2.10;;;;;;;18.14;67.24;101654.16;3575623;40;20048;-71
2023/06/28 01:14:17;;;;;;;7.00;2.40;;;;;;;18.18;65.77;101666.53;3572632;40;20060;-71
2023/06/28 01:16:45;;;;;;;4.78;1.92;;;;;;;17.91;64.80;101619.75;3574726;40;20302;-71
2023/06/28 01:19:13;;;;;;;3.08;1.60;;;;;;;18.20;64.52;101656.38;3574379;40;20067;-70
2023/06/28 01:21:45;;;;;;;3.35;1.67;;;;;;;18.18;65.43;101661.09;3576790;40;20105;-71
2023/06/28 01:24:12;;;;;;;6.72;2.00;;;;;;;17.95;65.58;101615.81;3576408;40;20178;-71
2023/06/28 01:26:40;;;;;;;6.07;2.38;;;;;;;17.51;65.07;101536.78;3579782;39;20067;-70
2023/06/28 01:29:08;;;;;;;3.70;2.05;;;;;;;18.22;65.30;101659.84;3577950;40;20156;-70
2023/06/28 01:31:36;;;;;;;5.22;1.85;;;;;;;18.22;64.95;101648.09;3578007;40;20295;-71
2023/06/28 01:34:02;;;;;;;4.65;2.17;;;;;;;18.20;66.68;101652.78;3578465;40;20504;-71
2023/06/28 01:36:30;;;;;;;5.47;2.00;;;;;;;18.15;66.76;101647.72;3576916;40;20473;-72
2023/06/28 01:38:58;;;;;;;5.18;2.03;;;;;;;17.95;67.98;101621.25;3578114;40;20313;-72
2023/06/28 01:41:26;;;;;;;3.70;1.83;;;;;;;18.07;68.94;101644.75;3576539;40;20060;-72
2023/06/28 01:43:52;;;;;;;6.30;2.15;;;;;;;18.07;69.82;101644.75;3576604;40;20386;-71
2023/06/28 01:46:18;;;;;;;2.90;2.22;;;;;;;18.04;69.96;101637.69;3573756;40;20141;-72
2023/06/28 01:48:44;;;;;;;3.92;2.28;;;;;;;18.10;70.81;101647.22;3576010;40;20064;-71
2023/06/28 01:51:10;;;;;;;6.20;2.58;;;;;;;18.08;70.26;101643.78;3572070;40;20053;-72
2023/06/28 01:53:35;;;;;;;5.28;2.70;;;;;;;17.89;70.24;101605.41;3575322;40;20462;-72
2023/06/28 01:56:01;;;;;;;6.13;2.55;;;;;;;18.07;71.82;101640.16;3574281;40;20501;-71
2023/06/28 01:58:27;;;;;;;7.07;2.42;;;;;;;18.07;71.17;101634.72;3573968;40;20136;-71
2023/06/28 02:00:52;;;;;;;6.93;3.05;;;;;;;18.08;70.91;101638.34;3574608;40;20683;-73
2023/06/28 02:03:18;;;;;;;6.28;3.25;;;;;;;17.81;70.52;101597.88;3573653;40;20062;-73
2023/06/28 02:05:43;;;;;;;4.25;2.45;;;;;;;18.06;70.33;101635.72;3573323;40;20074;-71
2023/06/28 02:08:10;;;;;;;6.20;2.75;;;;;;;18.06;70.88;101619.41;3571264;40;20194;-71
2023/06/28 02:10:36;;;;;;;7.25;2.90;;;;;;;18.10;71.87;101629.03;3575958;40;20829;-70
2023/06/28 02:13:01;;;;;;;4.22;2.70;;;;;;;18.09;72.28;101619.16;3573180;40;20131;-70
2023/06/28 02:15:27;;;;;;;6.43;2.67;;;;;;;18.09;72.55;101630.03;3565641;40;20067;-71
2023/06/28 02:17:56;;;;;;;9.45;2.88;;;;;;;18.08;72.22;101627.44;3573114;40;20060;-72
2023/06/28 02:20:22;;;;;;;4.70;2.67;;;;;;;18.06;71.30;101629.41;3573515;40;20060;-75
2023/06/28 02:22:47;;;;;;;8.30;2.60;;;;;;;18.06;71.19;101621.25;3573659;40;20138;-72
2023/06/28 02:25:13;;;;;;;4.57;2.47;;;;;;;18.07;72.53;101625.69;3575222;40;20052;-73
2023/06/28 02:27:39;;;;;;;6.93;2.85;;;;;;;18.07;70.40;101620.25;3572440;40;20071;-73
2023/06/28 02:30:05;;;;;;;5.18;2.65;;;;;;;18.03;69.97;101616.91;3572014;40;20516;-72
2023/06/28 02:32:31;;;;;;;4.85;3.10;;;;;;;17.84;70.60;101576.72;3574824;40;20166;-72
2023/06/28 02:34:57;;;;;;;5.85;2.78;;;;;;;17.99;71.09;101606.44;3571871;40;20052;-72
2023/06/28 02:37:24;;;;;;;5.18;2.75;;;;;;;18.06;72.17;101607.66;3572741;40;20064;-72
2023/06/28 02:39:50;;;;;;;7.53;3.20;;;;;;;18.04;71.96;101598.75;3579151;40;20331;-71
2023/06/28 02:42:15;;;;;;;6.47;2.90;;;;;;;18.10;71.90;101614.56;3571241;40;20130;-71
2023/06/28 02:44:41;;;;;;;6.60;2.95;;;;;;;18.07;71.89;101612.94;3576790;40;20059;-71
2023/06/28 02:47:06;;;;;;;7.50;2.78;;;;;;;18.07;73.20;101617.53;3574000;40;20330;-70
2023/06/28 02:49:32;;;;;;;6.00;2.88;;;;;;;18.03;73.73;101614.19;3572434;40;21028;-71
2023/06/28 02:51:58;;;;;;;7.30;3.47;;;;;;;18.00;72.92;101613.59;3574672;40;20093;-70
2023/06/28 02:54:24;;;;;;;7.88;3.47;;;;;;;17.91;74.43;101608.88;3572939;40;20284;-69
2023/06/28 02:56:49;;;;;;;7.78;3.50;;;;;;;17.91;75.42;101611.59;3573789;40;20473;-69
2023/06/28 02:59:15;;;;;;;6.75;3.67;;;;;;;17.86;75.55;101614.72;3574566;40;20259;-68
2023/06/28 03:01:41;;;;;;;8.60;3.35;;;;;;;17.83;76.83;101613.09;3576200;40;20110;-70
2023/06/28 03:04:07;;;;;;;8.32;3.13;;;;;;;17.78;77.51;101615.31;3572907;40;20068;-70
2023/06/28 03:06:35;;;;;;;10.02;3.67;;;;;;;17.74;77.60;101608.34;3577276;40;20430;-70
2023/06/28 03:09:01;;;;;;;7.85;3.80;;;;;;;17.63;78.00;101605.59;3573057;40;20064;-70
2023/06/28 03:11:26;;;;;;;6.28;3.45;;;;;;;17.60;80.35;101605.84;3574375;40;20664;-70
2023/06/28 03:13:52;;;;;;;9.40;3.70;;;;;;;17.56;80.27;101609.81;3575920;40;20048;-71
2023/06/28 03:16:18;;;;;;;7.22;3.53;;;;;;;17.55;81.13;101613.50;3572960;40;20324;-70
2023/06/28 03:18:43;;;;;;;9.40;3.92;;;;;;;17.27;78.99;101572.19;3577557;40;20056;-72
2023/06/28 03:21:09;;;;;;;8.90;3.70;;;;;;;17.40;79.93;101611.00;3574616;40;20060;-73
2023/06/28 03:23:36;;;;;;;7.85;3.72;;;;;;;17.36;80.07;101608.66;3573756;40;20075;-72
2023/06/28 03:26:01;;;;;;;10.27;3.72;;;;;;;17.10;80.89;101564.50;3574014;40;20063;-74
2023/06/28 03:28:27;;;;;;;6.47;3.58;;;;;;;17.35;81.54;101598.78;3573537;40;20084;-70
2023/06/28 03:30:53;;;;;;;6.80;3.83;;;;;;;17.35;82.58;101605.06;3574365;40;20063;-70
2023/06/28 03:33:18;;;;;;;8.73;3.50;;;;;;;17.37;81.80;101604.94;3574535;40;20063;-70
2023/06/28 03:35:44;;;;;;;7.63;3.78;;;;;;;17.39;81.77;101603.84;3577287;40;20441;-70
2023/06/28 03:38:09;;;;;;;7.55;3.85;;;;;;;17.37;82.87;101604.94;3572523;40;20059;-70
2023/06/28 03:40:36;;;;;;;6.18;3.65;;;;;;;17.36;83.76;101606.81;3573557;40;20063;-70
2023/06/28 03:43:03;;;;;;;7.43;3.85;;;;;;;17.17;82.58;101568.47;3579511;40;20106;-70
2023/06/28 03:45:29;;;;;;;9.52;4.13;;;;;;;16.61;81.96;101479.47;3578152;40;20668;-70
2023/06/28 03:47:55;;;;;;;6.90;3.88;;;;;;;17.30;83.21;101601.84;3577633;40;20410;-71
2023/06/28 03:50:20;;;;;;;7.30;4.00;;;;;;;17.27;83.69;101601.22;3577266;40;20372;-71
2023/06/28 03:52:46;;;;;;;5.60;3.78;;;;;;;17.22;83.81;101601.59;3576825;40;20068;-72
2023/06/28 03:55:12;;;;;;;9.27;4.20;;;;;;;17.24;85.03;101599.59;3577591;40;20091;-72
2023/06/28 03:57:39;;;;;;;9.18;3.90;;;;;;;17.23;83.76;101602.44;3572573;40;20055;-71
2023/06/28 04:00:10;;;;;;;5.85;4.00;;;;;;;17.18;84.09;101590.06;3573951;40;20395;-71
2023/06/28 04:02:36;;;;;;;9.48;3.83;;;;;;;17.22;83.67;101592.53;3575310;40;20056;-71
2023/06/28 04:05:02;;;;;;;9.13;4.30;;;;;;;17.24;84.53;101588.72;3574132;40;20438;-71
2023/06/28 04:07:28;;;;;;;9.27;4.60;;;;;;;17.18;85.55;101576.47;3575336;40;20064;-71
2023/06/28 04:09:54;;;;;;;8.27;4.43;;;;;;;16.95;84.03;101539.38;3574977;40;20125;-71
2023/06/28 04:12:20;;;;;;;8.88;4.20;;;;;;;17.19;83.71;101585.53;3571337;40;20068;-71
2023/06/28 04:14:46;;;;;;;8.73;4.40;;;;;;;17.19;84.61;101585.53;3571923;40;20056;-71
2023/06/28 04:17:12;;;;;;;10.77;4.88;;;;;;;17.21;85.02;101580.81;3572183;40;20149;-72
2023/06/28 04:19:38;;;;;;;7.72;4.38;;;;;;;16.95;83.76;101550.25;3578661;40;20224;-72
2023/06/28 04:22:04;;;;;;;10.27;5.05;;;;;;;17.09;85.61;101573.63;3575184;40;20055;-72
2023/06/28 04:24:29;;;;;;;8.70;4.53;;;;;;;17.27;85.22;101584.91;3575829;40;20437;-72
2023/06/28 04:26:56;;;;;;;5.93;4.40;;;;;;;17.24;83.48;101583.28;3572850;40;20075;-72
2023/06/28 04:29:21;;;;;;;5.47;4.28;;;;;;;17.32;83.94;101594.44;3571789;40;20057;-72
2023/06/28 04:31:47;;;;;;;10.48;4.30;;;;;;;17.27;83.37;101580.34;3573371;40;20051;-72
2023/06/28 04:34:13;;;;;;;7.47;4.38;;;;;;;17.32;83.48;101575.41;3574564;40;20058;-72
2023/06/28 04:36:39;;;;;;;8.80;4.55;;;;;;;17.39;83.82;101584.81;3574528;40;20063;-72
2023/06/28 04:39:05;;;;;;;6.88;4.25;;;;;;;17.47;83.28;101589.63;3574274;40;20052;-72
2023/06/28 04:41:31;;;;;;;7.30;4.38;;;;;;;17.48;82.36;101590.53;3573522;40;20074;-72
2023/06/28 04:43:58;;;;;;;8.30;4.95;;;;;;;17.45;82.77;101583.47;3574052;40;20320;-73
2023/06/28 04:46:28;;;;;;;7.13;4.43;;;;;;;17.25;82.89;101549.69;3572654;40;20055;-72
2023/06/28 04:48:56;;;;;;;7.50;4.40;;;;;;;17.51;82.53;101585.72;3575851;40;20048;-73
2023/06/28 04:51:22;;;;;;;8.35;4.53;;;;;;;17.45;82.16;101583.47;3575614;40;20303;-72
2023/06/28 04:53:49;;;;;;;7.53;4.75;;;;;;;17.48;82.78;101585.09;3577941;40;20186;-72
2023/06/28 04:56:15;;;;;;;8.63;4.40;;;;;;;17.47;81.29;101589.63;3576704;40;20418;-72
2023/06/28 04:58:42;;;;;;;9.00;4.45;;;;;;;17.48;81.88;101593.25;3575490;40;20282;-74
2023/06/28 05:01:09;;;;;;;7.60;4.22;;;;;;;17.11;80.75;101541.78;3576331;40;20129;-73
2023/06/28 05:03:38;;;;;;;8.68;4.57;;;;;;;17.45;82.01;101596.22;3578128;40;20112;-73
2023/06/28 05:06:08;;;;;;;7.30;4.47;;;;;;;17.50;81.39;101593.97;3574917;40;20048;-73
2023/06/28 05:08:35;;;;;;;8.30;4.28;;;;;;;17.51;81.69;101591.16;3565132;40;20125;-73
2023/06/28 05:11:02;;;;;;;6.70;4.30;;;;;;;17.55;81.67;101580.91;3571878;40;20119;-73
2023/06/28 05:13:28;;;;;;;8.32;4.00;;;;;;;17.43;81.02;101577.28;3576524;40;20108;-73
2023/06/28 05:15:54;;;;;;;9.38;4.43;;;;;;;17.52;81.20;101592.00;3573764;39;20090;-73
2023/06/28 05:18:20;;;;;;;8.18;4.22;;;;;;;17.51;80.30;101595.72;3573056;40;20813;-73
2023/06/28 05:20:46;;;;;;;7.07;4.50;;;;;;;17.54;81.59;101600.91;3576142;40;20068;-73
2023/06/28 05:23:13;;;;;;;9.40;4.55;;;;;;;17.59;81.90;101601.41;3573438;40;20064;-73
2023/06/28 05:25:41;;;;;;;8.45;4.47;;;;;;;17.37;80.85;101569.59;3574724;39;20064;-73
2023/06/28 05:28:09;;;;;;;7.65;4.30;;;;;;;17.52;81.17;101597.44;3573209;40;20056;-74
2023/06/28 05:30:35;;;;;;;8.95;4.82;;;;;;;17.52;81.71;101590.16;3571058;40;20377;-74
2023/06/28 05:33:02;;;;;;;6.95;4.72;;;;;;;17.57;81.22;101595.22;3572578;40;20076;-73
2023/06/28 05:35:31;;;;;;;7.55;4.60;;;;;;;17.52;81.89;101590.16;3574569;40;20055;-74
2023/06/28 05:37:56;;;;;;;8.70;4.78;;;;;;;17.58;81.63;101589.66;3573392;40;20298;-74
2023/06/28 05:40:22;;;;;;;8.65;4.75;;;;;;;17.58;81.25;101586.09;3570620;40;20309;-75
2023/06/28 05:42:48;;;;;;;9.10;5.18;;;;;;;17.60;82.02;101587.72;3574087;40;20183;-73
2023/06/28 05:45:13;;;;;;;7.28;4.88;;;;;;;17.61;82.05;101585.84;3573017;40;20068;-73
2023/06/28 05:47:39;;;;;;;9.30;4.88;;;;;;;17.65;82.91;101581.88;3575382;40;20113;-73
2023/06/28 05:50:05;;;;;;;10.15;5.00;;;;;;;17.58;81.63;101567.91;3571297;40;20111;-73
2023/06/28 05:52:31;;;;;;;8.10;5.25;;;;;;;17.66;81.81;101578.16;3576379;40;20060;-74
2023/06/28 05:54:57;;;;;;;12.70;5.05;;;;;;;16.92;81.74;101448.13;3579011;40;20591;-74
2023/06/28 05:57:22;;;;;;;8.88;5.00;;;;;;;17.77;82.36;101575.50;3575800;40;20079;-73
2023/06/28 05:59:48;;;;;;;6.85;4.70;;;;;;;17.79;81.11;101578.97;3574568;40;20792;-73
2023/06/28 06:02:14;;;;;;;11.65;5.82;;;;;;;17.79;81.12;101573.53;3572140;40;20070;-72
2023/06/28 06:04:40;;;;;;;8.90;5.10;;;;;;;17.81;80.82;101576.13;3574658;40;20048;-71
2023/06/28 06:07:05;;;;;;;21.20;15.23;;;;;;;17.84;81.08;101574.00;3570824;40;20055;-72
2023/06/28 06:09:32;;;;;;;9.68;6.22;;;;;;;17.51;80.56;101519.63;3572354;40;20060;-73
2023/06/28 06:11:58;;;;;;;9.52;5.40;;;;;;;17.90;79.99;101580.81;3574813;40;20064;-74
2023/06/28 06:14:23;;;;;;;9.70;5.78;;;;;;;17.94;79.68;101576.84;3574147;40;20377;-74
2023/06/28 06:16:54;;;;;;;10.20;5.63;;;;;;;17.96;80.08;101576.75;3573760;40;20402;-74
2023/06/28 06:19:19;;;;;;;7.38;5.55;;;;;;;17.98;79.85;101577.47;3574591;40;20052;-74
2023/06/28 06:21:45;;;;;;;11.95;5.78;;;;;;;17.97;78.95;101578.47;3575222;40;20068;-75
2023/06/28 06:24:11;;;;;;;10.82;5.47;;;;;;;18.01;78.44;101577.22;3572548;40;20104;-74
2023/06/28 06:26:36;;;;;;;10.15;5.57;;;;;;;17.94;79.24;101567.84;3572993;40;20562;-73
2023/06/28 06:29:02;;;;;;;9.95;5.38;;;;;;;17.96;77.77;101577.59;3569806;40;20095;-73
2023/06/28 06:31:29;;;;;;;10.82;5.70;;;;;;;18.02;79.44;101579.84;3573820;40;20064;-73
2023/06/28 06:34:01;;;;;;;10.32;5.72;;;;;;;17.94;79.60;101565.97;3572456;40;20082;-73
2023/06/28 06:36:29;;;;;;;10.82;5.65;;;;;;;18.06;79.16;101584.03;3578934;40;20048;-73
2023/06/28 06:38:59;;;;;;;6.97;5.28;;;;;;;18.10;79.66;101581.91;3572971;40;20100;-73
2023/06/28 06:41:25;;;;;;;9.60;5.47;;;;;;;18.07;78.76;101580.31;3573629;40;20122;-74
2023/06/28 06:43:51;;;;;;;9.35;5.13;;;;;;;18.08;78.46;101589.34;3579558;40;20064;-73
2023/06/28 06:46:20;;;;;;;10.93;5.35;;;;;;;18.07;78.06;101593.03;3581256;39;20094;-73
2023/06/28 06:48:46;;;;;;;11.20;5.47;;;;;;;18.09;78.40;101589.22;3578023;40;20383;-73
2023/06/28 06:51:12;;;;;;;9.95;5.20;;;;;;;18.13;78.28;101587.09;3566276;40;20056;-74
2023/06/28 06:53:38;;;;;;;9.77;4.82;;;;;;;18.10;76.24;101587.34;3573797;40;20103;-73
2023/06/28 06:56:04;;;;;;;8.50;4.60;;;;;;;18.11;77.50;101594.56;3574295;40;20532;-72
2023/06/28 06:58:30;;;;;;;7.32;5.05;;;;;;;18.13;77.50;101587.09;3573172;40;20110;-73
2023/06/28 07:00:56;;;;;;;10.45;4.60;;;;;;;18.17;76.34;101593.16;3575748;40;20377;-73
2023/06/28 07:03:22;;;;;;;9.20;4.70;;;;;;;17.98;77.80;101558.41;3572702;40;20104;-74
2023/06/28 07:05:47;;;;;;;7.97;4.97;;;;;;;18.16;77.82;101586.00;3574767;40;20379;-72
2023/06/28 07:08:13;;;;;;;5.53;4.43;;;;;;;18.19;76.65;101597.50;3578588;40;20075;-73
2023/06/28 07:10:39;;;;;;;9.93;4.65;;;;;;;17.95;76.62;101551.41;3571402;40;20389;-73
2023/06/28 07:13:04;;;;;;;9.35;4.88;;;;;;;18.24;76.73;101608.88;3577654;40;20071;-73
2023/06/28 07:15:30;;;;;;;8.38;4.97;;;;;;;18.23;76.88;101603.53;3575783;40;20052;-73
2023/06/28 07:17:56;;;;;;;8.57;4.68;;;;;;;18.26;76.85;101597.84;3570936;40;20083;-73
2023/06/28 07:20:22;;;;;;;8.90;4.78;;;;;;;18.04;76.43;101564.22;3576836;40;20068;-73
2023/06/28 07:22:47;;;;;;;7.07;4.30;;;;;;;18.30;76.39;101605.66;3570913;40;20232;-72
2023/06/28 07:25:14;;;;;;;16.08;11.80;;;;;;;18.32;76.39;101603.66;3573304;40;20740;-72
2023/06/28 07:27:40;;;;;;;7.95;4.93;;;;;;;18.37;76.16;101607.88;3575290;40;20502;-73
2023/06/28 07:30:08;;;;;;;6.75;4.70;;;;;;;18.37;76.63;101614.19;3572169;40;20454;-73
2023/06/28 07:32:34;;;;;;;7.63;4.50;;;;;;;18.22;75.92;101583.63;3574637;40;20063;-74
2023/06/28 07:35:00;;;;;;;5.88;3.97;;;;;;;18.39;75.73;101608.59;3573668;40;20354;-73
2023/06/28 07:37:26;;;;;;;8.52;4.43;;;;;;;18.32;75.01;101591.91;3572803;40;20045;-74
2023/06/28 07:39:52;;;;;;;7.45;4.30;;;;;;;18.41;73.98;101602.03;3572785;40;20471;-75
2023/06/28 07:42:19;;;;;;;9.18;4.70;;;;;;;18.47;74.53;101611.56;3572930;40;20068;-71
2023/06/28 07:44:45;;;;;;;7.88;4.20;;;;;;;18.20;72.09;101572.00;3572485;40;20141;-72
2023/06/28 07:47:11;;;;;;;10.73;4.35;;;;;;;18.45;72.96;101611.69;3569465;40;20087;-71
2023/06/28 07:49:38;;;;;;;8.30;4.35;;;;;;;18.44;73.28;101606.38;3571802;40;20068;-71
2023/06/28 07:52:04;;;;;;;8.02;4.38;;;;;;;18.48;74.03;101605.97;3577031;40;20407;-73
2023/06/28 07:54:30;;;;;;;8.45;4.32;;;;;;;18.58;74.40;101610.66;3576446;40;20067;-72
2023/06/28 07:56:56;;;;;;;9.70;4.32;;;;;;;18.59;72.34;101609.69;3575095;40;20496;-72
2023/06/28 07:59:22;;;;;;;8.25;4.40;;;;;;;18.45;72.88;101583.59;3577659;40;20086;-72
2023/06/28 08:01:48;;;;;;;7.45;4.32;;;;;;;18.60;72.29;101611.41;3573215;40;20060;-73
2023/06/28 08:04:17;;;;;;;7.15;4.20;;;;;;;18.60;72.00;101598.66;3574936;40;20060;-73
2023/06/28 08:06:43;;;;;;;8.35;4.22;;;;;;;18.67;72.23;101608.03;3578904;40;20050;-73
2023/06/28 08:09:10;;;;;;;7.53;4.30;;;;;;;18.68;70.63;101608.91;3576211;40;20277;-72
2023/06/28 08:11:35;;;;;;;8.57;4.50;;;;;;;18.70;71.61;101613.22;3578703;40;20052;-73
2023/06/28 08:14:02;;;;;;;8.25;4.30;;;;;;;18.75;71.17;101610.16;3572973;40;20347;-73
2023/06/28 08:16:28;;;;;;;9.35;4.50;;;;;;;18.69;69.64;101611.50;3577916;40;20499;-72
2023/06/28 08:18:53;;;;;;;7.32;3.80;;;;;;;18.73;71.24;101613.00;3571774;40;20059;-72
2023/06/28 08:21:19;;;;;;;7.72;4.43;;;;;;;18.62;70.23;101582.19;3577861;40;20061;-73
2023/06/28 08:23:45;;;;;;;10.75;3.97;;;;;;;18.76;69.37;101603.72;3573528;40;20749;-73
2023/06/28 08:26:10;;;;;;;7.28;4.30;;;;;;;18.82;70.74;101599.63;3576212;40;20060;-72
2023/06/28 08:28:36;;;;;;;9.00;5.15;;;;;;;18.86;69.67;101603.81;3579053;40;20059;-72
2023/06/28 08:31:02;;;;;;;5.13;3.78;;;;;;;18.88;70.03;101593.66;3580807;40;20079;-72
2023/06/28 08:33:27;;;;;;;7.85;4.82;;;;;;;18.74;70.25;101564.84;3579504;40;20040;-72
2023/06/28 08:35:53;;;;;;;7.00;4.20;;;;;;;19.04;69.65;101596.78;3575813;40;20070;-72
2023/06/28 08:38:19;;;;;;;7.15;3.75;;;;;;;19.16;71.26;101598.47;3577039;40;20071;-73
2023/06/28 08:40:44;;;;;;;8.10;4.30;;;;;;;19.22;68.72;101608.00;3572629;40;20066;-72
2023/06/28 08:43:16;;;;;;;8.15;4.32;;;;;;;19.09;68.50;101580.91;3575124;40;20076;-72
2023/06/28 08:45:44;;;;;;;7.93;3.65;;;;;;;19.09;68.83;101552.78;3575883;39;20409;-72
2023/06/28 08:48:13;;;;;;;7.97;3.63;;;;;;;19.41;68.00;101599.06;3577735;40;20330;-72
2023/06/28 08:50:41;;;;;;;9.73;3.63;;;;;;;19.45;68.65;101598.66;3573438;40;20559;-72
2023/06/28 08:53:09;;;;;;;6.10;4.05;;;;;;;19.49;67.15;101589.22;3577644;40;20401;-72
2023/06/28 08:55:37;;;;;;;6.32;4.03;;;;;;;19.67;68.54;101605.00;3576226;40;20048;-72
2023/06/28 08:58:06;;;;;;;7.30;4.25;;;;;;;19.79;67.14;101601.22;3573943;40;20292;-72
2023/06/28 09:00:32;;;;;;;8.90;3.83;;;;;;;19.94;67.04;101602.53;3574742;40;20129;-72
2023/06/28 09:02:58;;;;;;;5.97;3.45;;;;;;;20.11;65.20;101601.06;3577883;40;20335;-72
2023/06/28 09:05:23;;;;;;;6.95;3.80;;;;;;;19.93;64.46;101569.94;3577215;40;20059;-72
2023/06/28 09:07:54;;;;;;;7.53;3.70;;;;;;;20.21;65.16;101605.69;3573774;40;20086;-72
2023/06/28 09:10:21;;;;;;;6.85;3.45;;;;;;;20.24;65.23;101600.81;3573676;40;20080;-71
2023/06/28 09:12:48;;;;;;;6.97;3.58;;;;;;;20.27;63.41;101595.06;3576341;40;20531;-72
2023/06/28 09:15:16;;;;;;;15.73;10.85;;;;;;;20.39;64.48;101587.59;3577858;40;20060;-72
2023/06/28 09:17:42;;;;;;;9.63;4.07;;;;;;;20.52;62.97;101592.84;3575794;40;20068;-72
2023/06/28 09:20:28;;;;;;;7.55;3.38;;;;;;;20.59;64.14;101592.16;3577157;40;20138;-72
2023/06/28 09:23:00;;;;;;;6.25;3.55;;;;;;;20.65;62.92;101588.00;3571459;40;20064;-72
2023/06/28 09:25:29;;;;;;;8.82;3.50;;;;;;;20.57;63.62;101568.72;3573163;40;20553;-72
2023/06/28 09:27:59;;;;;;;7.47;3.10;;;;;;;20.79;61.15;101594.91;3571856;40;20056;-72
2023/06/28 09:30:24;;;;;;;9.05;4.35;;;;;;;20.80;60.33;101580.22;3576109;40;20394;-72
2023/06/28 09:32:51;;;;;;;6.75;3.97;;;;;;;20.84;61.49;101588.03;3573420;40;20127;-73
2023/06/28 09:35:18;;;;;;;10.52;4.43;;;;;;;20.91;60.74;101592.91;3578955;40;20073;-72
2023/06/28 09:37:50;;;;;;;7.00;2.97;;;;;;;20.94;60.72;101595.34;3576469;40;20678;-72
2023/06/28 09:40:17;;;;;;;6.20;3.00;;;;;;;20.75;59.44;101555.22;3573910;40;20188;-72
2023/06/28 09:42:48;;;;;;;6.57;3.30;;;;;;;20.99;59.30;101596.63;3569762;40;20063;-72
2023/06/28 09:45:35;;;;;;;6.40;3.15;;;;;;;21.14;59.52;101593.47;3572844;40;20095;-72
2023/06/28 09:48:03;;;;;;;7.25;3.30;;;;;;;21.22;59.39;101590.91;3571829;40;20066;-72
2023/06/28 09:50:41;;;;;;;6.90;2.90;;;;;;;21.36;60.16;101593.19;3574173;40;20063;-72
2023/06/28 09:53:16;;;;;;;7.07;3.10;;;;;;;21.34;58.39;101586.97;3573699;39;20059;-72
2023/06/28 09:55:49;;;;;;;6.72;3.08;;;;;;;21.41;58.63;101590.00;3572909;40;20068;-71
2023/06/28 09:58:18;;;;;;;4.30;2.70;;;;;;;21.44;58.14;101584.25;3573292;40;20052;-71
2023/06/28 10:00:49;;;;;;;7.07;3.10;;;;;;;21.31;57.11;101548.97;3569312;40;20067;-71
2023/06/28 10:03:25;;;;;;;5.72;3.30;;;;;;;21.61;57.25;101580.75;3571768;40;20052;-71
2023/06/28 10:05:56;;;;;;;7.25;3.05;;;;;;;21.82;57.94;101582.41;3568733;40;20066;-72
2023/06/28 10:08:25;;;;;;;6.38;2.90;;;;;;;22.10;57.50;101578.69;3570949;40;20402;-72
2023/06/28 10:10:55;;;;;;;11.52;3.22;;;;;;;22.31;56.69;101578.47;3572410;40;20080;-72
2023/06/28 10:13:22;;;;;;;7.03;3.05;;;;;;;22.54;56.36;101586.25;3570609;40;20139;-72
2023/06/28 10:16:09;;;;;;;8.73;3.50;;;;;;;22.68;55.17;101581.13;3572371;40;20304;-72
2023/06/28 10:18:35;;;;;;;6.55;2.85;;;;;;;22.81;52.70;101580.72;3573120;40;20471;-72
2023/06/28 10:21:06;;;;;;;7.07;2.83;;;;;;;22.92;52.57;101576.88;3574258;40;20051;-72
2023/06/28 10:23:35;;;;;;;6.13;2.70;;;;;;;22.99;52.99;101568.91;3569088;40;20052;-72
2023/06/28 10:26:05;;;;;;;8.18;2.67;;;;;;;23.09;51.93;101572.41;3571418;40;20161;-72
2023/06/28 10:28:36;;;;;;;5.82;2.50;;;;;;;23.13;51.61;101568.34;3569681;40;20060;-74
2023/06/28 10:31:05;;;;;;;9.48;2.92;;;;;;;23.31;50.92;101560.97;3569436;40;20061;-74
2023/06/28 10:33:36;;;;;;;7.38;2.58;;;;;;;23.19;49.57;101567.72;3574423;40;20161;-74
2023/06/28 10:36:04;;;;;;;6.65;2.47;;;;;;;23.16;50.11;101571.66;3573161;39;20338;-74
2023/06/28 10:38:43;;;;;;;6.38;2.40;;;;;;;23.26;50.84;101556.97;3569056;40;20055;-76
2023/06/28 10:41:14;;;;;;;4.57;2.65;;;;;;;23.46;51.40;101571.34;3570472;40;20394;-76
2023/06/28 10:43:41;;;;;;;6.50;3.00;;;;;;;23.63;51.21;101570.44;3569645;40;20141;-73
2023/06/28 10:46:26;;;;;;;7.60;3.40;;;;;;;23.62;48.39;101568.69;3570257;40;20069;-75
2023/06/28 10:48:59;;;;;;;6.18;3.30;;;;;;;23.61;49.17;101561.50;3571687;39;20053;-74
2023/06/28 10:51:32;;;;;;;4.97;3.00;;;;;;;23.67;50.23;101560.00;3572155;40;20092;-76
2023/06/28 10:54:13;;;;;;;8.45;3.08;;;;;;;23.95;49.18;101561.56;3571553;40;20061;-74
2023/06/28 10:56:50;;;;;;;4.93;2.70;;;;;;;24.12;50.44;101550.63;3570461;40;20521;-75
2023/06/28 10:59:17;;;;;;;4.18;2.80;;;;;;;24.48;48.89;101565.03;3570872;40;20060;-74
2023/06/28 11:01:49;;;;;;;3.97;2.78;;;;;;;24.59;48.08;101564.72;3567177;40;20068;-75
2023/06/28 11:04:23;;;;;;;8.48;3.10;;;;;;;24.73;47.86;101558.53;3564954;39;20087;-74
2023/06/28 11:07:15;;;;;;;5.03;2.60;;;;;;;24.88;47.19;101550.47;3575542;40;20262;-75
2023/06/28 11:09:40;;;;;;;6.32;2.90;;;;;;;24.96;47.56;101547.75;3558308;40;20350;-75
2023/06/28 11:12:13;;;;;;;6.30;2.80;;;;;;;25.01;48.22;101533.47;3570559;40;20068;-75
2023/06/28 11:14:39;;;;;;;4.95;2.55;;;;;;;25.19;48.83;101538.81;3572541;40;20786;-73
2023/06/28 11:17:10;;;;;;;5.40;2.97;;;;;;;25.21;47.24;101543.13;3570561;40;20056;-73
2023/06/28 11:19:39;;;;;;;7.72;3.47;;;;;;;25.11;46.51;101528.63;3570450;40;20048;-74
2023/06/28 11:22:05;;;;;;;5.18;2.78;;;;;;;25.43;47.33;101547.03;3570158;40;20072;-73
2023/06/28 11:24:37;;;;;;;5.18;3.20;;;;;;;25.51;46.07;101540.66;3572110;40;20099;-74